Time;durP1;ratioP1;P1;durP2;ratioP2;P2;SDS_P1;SDS_P2;PMS_P1;PMS_P2;Temp;Humidity;BMP_temperature;BMP_pressure;BME280_temperature;BME280_humidity;BME280_pressure;Samples;Min_cycle;Max_cycle;Signal;HPM_P1;HPM_P2
2022/10/19 00:01:56;;;;;;;7.67;4.05;;;16.60;99.90;;;;;;1921947;72;22223;-83
2022/10/19 00:07:31;;;;;;;8.78;4.00;;;16.60;99.90;;;;;;1946901;72;22145;-85
2022/10/19 00:10:23;;;;;;;9.40;4.03;;;16.60;99.90;;;;;;1918457;73;21192;-82
2022/10/19 00:13:14;;;;;;;6.50;3.90;;;16.50;99.90;;;;;;1917317;73;21065;-83
2022/10/19 00:18:48;;;;;;;10.48;4.40;;;16.50;99.90;;;;;;1932423;72;22244;-83
2022/10/19 00:24:19;;;;;;;8.30;3.58;;;16.50;99.90;;;;;;1941615;72;22225;-83
2022/10/19 00:27:10;;;;;;;7.87;3.25;;;16.50;99.90;;;;;;1885381;75;21182;-84
2022/10/19 00:32:40;;;;;;;6.60;3.98;;;16.50;99.90;;;;;;1941454;72;22242;-83
2022/10/19 00:35:31;;;;;;;5.03;3.00;;;16.50;99.90;;;;;;1906721;75;21118;-83
2022/10/19 00:38:23;;;;;;;7.65;3.45;;;16.50;99.90;;;;;;1864561;76;21106;-83
2022/10/19 00:41:16;;;;;;;5.53;2.92;;;16.50;99.90;;;;;;1917605;75;21117;-83
2022/10/19 00:44:28;;;;;;;5.72;3.20;;;16.50;99.90;;;;;;1909617;75;21573;-83
2022/10/19 00:47:23;;;;;;;5.37;2.90;;;16.50;99.90;;;;;;1907003;75;21102;-83
2022/10/19 00:52:56;;;;;;;8.00;3.15;;;16.40;99.90;;;;;;1936733;72;22135;-83
2022/10/19 00:55:47;;;;;;;5.03;3.10;;;16.40;99.90;;;;;;1891211;75;21164;-83
2022/10/19 00:58:39;;;;;;;8.85;3.40;;;16.30;99.90;;;;;;1896443;75;21084;-85
2022/10/19 01:04:11;;;;;;;6.97;3.33;;;16.20;99.90;;;;;;1942998;72;22313;-85
2022/10/19 01:09:43;;;;;;;6.40;3.22;;;16.10;99.90;;;;;;1949059;72;22131;-83
2022/10/19 01:15:47;;;;;;;5.95;3.17;;;16.00;99.90;;;;;;1936786;72;22222;-85
2022/10/19 01:21:26;;;;;;;7.92;3.55;;;16.00;99.90;;;;;;1928114;72;22417;-83
2022/10/19 01:30:42;;;;;;;7.78;4.08;;;16.00;99.90;;;;;;1938115;72;22773;-83
2022/10/19 01:33:39;;;;;;;6.00;4.00;;;15.90;99.90;;;;;;1901446;75;21125;-84
2022/10/19 01:36:35;;;;;;;7.80;4.23;;;16.00;99.90;;;;;;1895106;75;21153;-83
2022/10/19 01:42:15;;;;;;;12.03;4.15;;;15.90;99.90;;;;;;1941232;72;22134;-83
2022/10/19 01:47:53;;;;;;;5.67;4.00;;;15.80;99.90;;;;;;1950178;72;22192;-83
2022/10/19 01:53:30;;;;;;;6.70;4.00;;;15.80;99.90;;;;;;1934611;72;22257;-83
2022/10/19 01:56:25;;;;;;;9.13;3.92;;;15.70;99.90;;;;;;1883548;75;21621;-83
2022/10/19 02:02:00;;;;;;;7.35;4.30;;;15.80;99.90;;;;;;1908690;72;22161;-83
2022/10/19 02:04:53;;;;;;;6.37;3.90;;;15.70;99.90;;;;;;1894307;75;21148;-83
2022/10/19 02:07:47;;;;;;;4.67;3.50;;;15.80;99.90;;;;;;1903972;75;21086;-83
2022/10/19 02:13:21;;;;;;;5.25;3.80;;;15.80;99.90;;;;;;1936117;72;22228;-83
2022/10/19 02:18:55;;;;;;;6.97;3.40;;;15.80;99.90;;;;;;1931714;72;22346;-83
2022/10/19 02:27:11;;;;;;;7.67;4.37;;;15.80;99.90;;;;;;1928204;72;22247;-83
2022/10/19 02:32:43;;;;;;;8.95;3.67;;;15.70;99.90;;;;;;1944118;72;22299;-83
2022/10/19 02:35:34;;;;;;;7.92;3.92;;;15.70;99.90;;;;;;1922935;73;21221;-83
2022/10/19 02:41:09;;;;;;;5.72;4.30;;;15.60;99.90;;;;;;1932579;72;22129;-83
2022/10/19 02:44:03;;;;;;;6.33;4.00;;;15.60;99.90;;;;;;1893684;75;21176;-84
2022/10/19 02:46:59;;;;;;;6.50;4.37;;;15.60;99.90;;;;;;1883879;75;21094;-83
2022/10/19 02:52:38;;;;;;;8.75;4.03;;;15.60;99.90;;;;;;1952566;72;22101;-83
2022/10/19 02:55:30;;;;;;;7.17;4.15;;;15.50;99.90;;;;;;1925335;73;21667;-83
2022/10/19 02:58:22;;;;;;;5.90;3.90;;;15.40;99.90;;;;;;1919578;73;21251;-82
2022/10/19 03:03:54;;;;;;;6.78;3.98;;;15.20;99.90;;;;;;1928716;72;22227;-82
2022/10/19 03:12:06;;;;;;;6.83;4.00;;;15.30;99.90;;;;;;1931759;72;22217;-82
2022/10/19 03:17:35;;;;;;;10.45;4.55;;;15.30;99.90;;;;;;1940982;72;22240;-83
2022/10/19 03:20:26;;;;;;;8.55;4.80;;;15.30;99.90;;;;;;1897455;75;21637;-83
2022/10/19 03:25:57;;;;;;;5.12;3.75;;;15.30;99.90;;;;;;1949182;72;22271;-83
2022/10/19 03:28:48;;;;;;;7.42;4.30;;;15.20;99.90;;;;;;1918158;73;21205;-83
2022/10/19 03:34:19;;;;;;;9.53;4.05;;;15.20;99.90;;;;;;1934424;72;22123;-82
2022/10/19 03:39:51;;;;;;;8.25;4.25;;;15.20;99.90;;;;;;1924543;72;22303;-85
2022/10/19 03:45:24;;;;;;;9.70;4.33;;;15.10;99.90;;;;;;1933176;72;22735;-83
2022/10/19 03:48:15;;;;;;;6.42;4.12;;;15.10;99.90;;;;;;1879418;75;21124;-83
2022/10/19 03:53:52;;;;;;;7.28;4.28;;;15.00;99.90;;;;;;1938321;72;22173;-82
2022/10/19 03:59:26;;;;;;;10.25;4.75;;;14.90;99.90;;;;;;1941016;72;22698;-83
2022/10/19 04:02:17;;;;;;;11.60;4.62;;;15.00;99.90;;;;;;1908857;75;21625;-85
2022/10/19 04:05:10;;;;;;;7.25;4.25;;;15.00;99.90;;;;;;1915417;75;21636;-83
2022/10/19 04:10:44;;;;;;;5.05;4.05;;;14.90;99.90;;;;;;1931908;72;22162;-83
2022/10/19 04:13:36;;;;;;;6.25;3.65;;;14.80;99.90;;;;;;1915359;74;21049;-82
2022/10/19 04:16:29;;;;;;;5.22;3.70;;;14.80;99.90;;;;;;1916155;74;21633;-82
2022/10/19 04:19:20;;;;;;;6.33;3.92;;;14.80;99.90;;;;;;1918805;74;21260;-84
2022/10/19 04:22:12;;;;;;;8.00;4.55;;;14.80;99.90;;;;;;1906334;74;21101;-84
2022/10/19 04:27:44;;;;;;;10.28;4.53;;;14.70;99.90;;;;;;1950586;72;22133;-83
2022/10/19 04:33:16;;;;;;;10.90;4.05;;;14.60;99.90;;;;;;1942789;72;22217;-82
2022/10/19 04:38:50;;;;;;;10.25;4.37;;;14.70;99.90;;;;;;1927842;72;22610;-82
2022/10/19 04:41:41;;;;;;;9.18;4.50;;;14.60;99.90;;;;;;1896961;75;21160;-84
2022/10/19 04:47:13;;;;;;;7.85;3.80;;;14.60;99.90;;;;;;1928476;72;22682;-82
2022/10/19 04:52:50;;;;;;;7.28;4.20;;;14.50;99.90;;;;;;1927597;72;22198;-82
2022/10/19 04:55:43;;;;;;;5.90;3.65;;;14.40;99.90;;;;;;1887133;75;21056;-83
2022/10/19 04:58:35;;;;;;;9.15;4.05;;;14.40;99.90;;;;;;1873789;75;21151;-83
2022/10/19 05:01:28;;;;;;;9.43;4.92;;;14.40;99.90;;;;;;1887996;75;21597;-83
2022/10/19 05:07:00;;;;;;;11.57;4.53;;;14.30;99.90;;;;;;1956675;72;22792;-82
2022/10/19 05:09:51;;;;;;;11.90;4.83;;;14.30;99.90;;;;;;1935953;73;21230;-83
2022/10/19 05:15:25;;;;;;;13.65;4.97;;;14.40;99.90;;;;;;1932526;72;22221;-82
2022/10/19 05:21:03;;;;;;;8.63;3.95;;;14.40;99.90;;;;;;1926768;72;22154;-83
2022/10/19 05:23:56;;;;;;;8.35;3.80;;;14.30;99.90;;;;;;1898036;75;21122;-85
2022/10/19 05:29:39;;;;;;;9.20;4.17;;;14.30;99.90;;;;;;1939621;72;22207;-85
2022/10/19 05:32:31;;;;;;;8.78;4.17;;;14.30;99.90;;;;;;1914083;75;21144;-83
2022/10/19 05:38:02;;;;;;;7.12;4.10;;;14.30;99.90;;;;;;1947822;72;22654;-82
2022/10/19 05:40:53;;;;;;;7.75;3.98;;;14.20;99.90;;;;;;1899473;75;21138;-83
2022/10/19 05:43:46;;;;;;;12.55;4.60;;;14.20;99.90;;;;;;1903021;75;21103;-84
2022/10/19 05:49:20;;;;;;;6.72;4.97;;;14.10;99.90;;;;;;1937295;72;22275;-85
2022/10/19 05:52:11;;;;;;;8.43;4.72;;;14.10;99.90;;;;;;1894020;75;21128;-86
2022/10/19 05:59:25;;;;;;;7.50;4.40;;;14.10;99.90;;;;;;1873976;75;21095;-84
2022/10/19 06:02:16;;;;;;;11.18;5.12;;;14.20;99.90;;;;;;1842216;76;21102;-84
2022/10/19 06:07:46;;;;;;;10.48;4.67;;;14.40;99.90;;;;;;1931141;72;22308;-85
2022/10/19 06:13:20;;;;;;;10.50;4.47;;;14.40;99.90;;;;;;1933780;72;22284;-84
2022/10/19 06:18:52;;;;;;;8.13;4.05;;;14.40;99.90;;;;;;1929045;72;22232;-85
2022/10/19 06:24:22;;;;;;;6.72;4.12;;;14.40;99.90;;;;;;1941547;72;22257;-86
2022/10/19 06:27:13;;;;;;;10.70;3.92;;;14.50;99.90;;;;;;1848738;77;21143;-86
2022/10/19 06:32:43;;;;;;;7.95;3.10;;;14.50;99.90;;;;;;1936472;72;22357;-85
2022/10/19 06:35:34;;;;;;;8.88;4.22;;;14.60;99.90;;;;;;1885378;75;21145;-85
2022/10/19 06:38:25;;;;;;;9.35;4.00;;;14.50;99.90;;;;;;1882881;75;21207;-84
2022/10/19 06:41:17;;;;;;;5.28;3.45;;;14.60;99.90;;;;;;1853714;76;21133;-85
2022/10/19 06:44:09;;;;;;;5.15;3.20;;;14.60;99.90;;;;;;1888900;75;21054;-84
2022/10/19 06:49:38;;;;;;;9.85;3.98;;;14.70;99.90;;;;;;1943894;72;22592;-83
2022/10/19 06:52:30;;;;;;;9.23;4.37;;;14.70;99.90;;;;;;1921245;73;21114;-86
2022/10/19 06:55:21;;;;;;;13.08;4.50;;;14.80;99.90;;;;;;1933080;73;21116;-85
2022/10/19 06:58:13;;;;;;;10.18;5.15;;;14.90;99.90;;;;;;1917463;73;21133;-85
2022/10/19 07:01:06;;;;;;;9.70;4.53;;;15.00;99.90;;;;;;1940013;73;21058;-85
2022/10/19 07:03:58;;;;;;;10.68;6.15;;;15.00;99.90;;;;;;1946065;73;21090;-84
2022/10/19 07:06:49;;;;;;;9.88;4.92;;;15.00;99.90;;;;;;1945563;73;21046;-84
2022/10/19 07:12:20;;;;;;;11.68;5.65;;;15.20;99.90;;;;;;1929755;72;22611;-84
2022/10/19 07:15:12;;;;;;;8.90;4.47;;;15.20;99.90;;;;;;1911102;75;21113;-86
2022/10/19 07:18:04;;;;;;;9.35;5.00;;;15.20;99.90;;;;;;1900372;74;21098;-86
2022/10/19 07:23:37;;;;;;;10.05;5.65;;;15.20;99.90;;;;;;1951975;72;22231;-85
2022/10/19 07:26:29;;;;;;;12.00;5.25;;;15.30;99.90;;;;;;1920400;73;21144;-85
2022/10/19 07:29:20;;;;;;;10.58;5.55;;;15.30;99.90;;;;;;1926948;73;21127;-84
2022/10/19 07:32:12;;;;;;;10.03;4.40;;;15.40;99.90;;;;;;1931162;73;21597;-85
2022/10/19 07:37:45;;;;;;;16.05;5.08;;;15.40;99.90;;;;;;1943303;72;22137;-84
2022/10/19 07:40:37;;;;;;;10.43;4.17;;;15.40;99.90;;;;;;1936977;73;21109;-85
2022/10/19 07:46:10;;;;;;;16.75;5.28;;;15.30;99.90;;;;;;1930689;72;22322;-86
2022/10/19 07:49:01;;;;;;;16.87;5.87;;;15.40;99.90;;;;;;1894346;75;21056;-84
2022/10/19 07:51:54;;;;;;;21.23;7.62;;;15.50;99.90;;;;;;1903959;75;21077;-85
2022/10/19 07:54:48;;;;;;;16.32;7.85;;;15.50;99.90;;;;;;1876134;75;21134;-84
2022/10/19 07:57:39;;;;;;;14.23;6.92;;;15.50;99.90;;;;;;1895739;75;21172;-84
2022/10/19 08:00:32;;;;;;;17.20;5.15;;;15.50;99.90;;;;;;1892880;75;21200;-84
2022/10/19 08:03:23;;;;;;;15.03;5.15;;;15.50;99.90;;;;;;1872724;75;21067;-84
2022/10/19 08:06:18;;;;;;;15.40;5.65;;;15.60;99.90;;;;;;1873011;75;21143;-84
2022/10/19 08:09:10;;;;;;;11.53;4.92;;;15.60;99.90;;;;;;1896188;75;21111;-84
2022/10/19 08:14:41;;;;;;;12.00;5.87;;;15.70;99.90;;;;;;1948244;72;22642;-86
2022/10/19 08:17:33;;;;;;;17.75;6.15;;;15.70;99.90;;;;;;1889875;75;21184;-85
2022/10/19 08:20:24;;;;;;;16.32;7.22;;;15.80;99.90;;;;;;1907186;75;21055;-84
2022/10/19 08:23:16;;;;;;;19.67;7.30;;;15.90;99.90;;;;;;1904515;75;21058;-85
2022/10/19 08:28:45;;;;;;;14.28;8.73;;;16.00;99.90;;;;;;1934233;72;22133;-84
2022/10/19 08:31:37;;;;;;;17.73;7.37;;;16.10;99.90;;;;;;1912517;75;21103;-85
2022/10/19 08:34:28;;;;;;;13.60;6.00;;;16.20;99.90;;;;;;1906616;75;21601;-85
2022/10/19 08:37:20;;;;;;;16.00;7.40;;;16.30;99.90;;;;;;1898013;75;21083;-86
2022/10/19 08:40:18;;;;;;;11.63;6.83;;;16.30;99.90;;;;;;1888201;75;21105;-85
2022/10/19 08:43:13;;;;;;;12.00;5.97;;;16.40;99.90;;;;;;1917598;75;21617;-85
2022/10/19 08:46:08;;;;;;;16.37;6.62;;;16.50;99.90;;;;;;1901232;75;21101;-85
2022/10/19 08:49:01;;;;;;;12.88;5.65;;;16.50;99.90;;;;;;1904757;75;21091;-85
2022/10/19 08:51:56;;;;;;;11.85;5.50;;;16.60;99.90;;;;;;1890679;75;21505;-85
2022/10/19 08:57:32;;;;;;;12.00;4.58;;;16.70;99.90;;;;;;1918737;72;22212;-87
2022/10/19 09:00:27;;;;;;;10.55;4.05;;;16.80;99.90;;;;;;1898002;75;21066;-85
2022/10/19 09:06:19;;;;;;;9.60;3.87;;;16.90;99.90;;;;;;1947643;72;22568;-84
2022/10/19 09:09:13;;;;;;;12.03;3.92;;;17.00;99.90;;;;;;1915390;75;21129;-85
2022/10/19 09:12:07;;;;;;;9.63;3.75;;;17.10;99.90;;;;;;1906152;75;21184;-84
2022/10/19 09:15:01;;;;;;;8.78;3.67;;;17.20;99.90;;;;;;1897152;75;21204;-84
2022/10/19 09:17:53;;;;;;;8.70;3.75;;;17.30;99.90;;;;;;1907230;75;21122;-84
2022/10/19 09:20:47;;;;;;;8.38;3.95;;;17.20;99.90;;;;;;1900022;74;21494;-84
2022/10/19 09:23:40;;;;;;;11.78;4.12;;;17.30;99.90;;;;;;1898051;75;21202;-85
2022/10/19 09:26:35;;;;;;;11.33;4.35;;;17.40;99.90;;;;;;1891270;75;21199;-84
2022/10/19 09:29:30;;;;;;;11.95;4.58;;;17.50;99.90;;;;;;1903141;75;21650;-84
2022/10/19 09:32:25;;;;;;;11.12;4.15;;;17.60;99.90;;;;;;1895912;75;21061;-85
2022/10/19 09:35:25;;;;;;;14.07;4.28;;;17.70;99.90;;;;;;1884985;76;21055;-85
2022/10/19 09:38:18;;;;;;;7.20;4.25;;;17.80;99.90;;;;;;1892615;75;21059;-84
2022/10/19 09:41:17;;;;;;;10.30;4.60;;;17.80;99.90;;;;;;1893928;75;21051;-84
2022/10/19 09:44:09;;;;;;;11.70;4.65;;;18.00;99.90;;;;;;1884760;76;21096;-84
2022/10/19 09:47:04;;;;;;;9.65;4.58;;;18.10;99.90;;;;;;1917752;75;21059;-85
2022/10/19 09:50:16;;;;;;;9.68;4.72;;;18.20;99.90;;;;;;1897242;75;21107;-85
2022/10/19 09:53:12;;;;;;;9.68;4.92;;;18.30;99.90;;;;;;1895870;75;21109;-84
2022/10/19 09:56:07;;;;;;;14.03;4.80;;;18.40;99.90;;;;;;1895327;75;21114;-85
2022/10/19 09:58:59;;;;;;;11.85;4.30;;;18.50;99.90;;;;;;1892742;75;21236;-84
2022/10/19 10:02:00;;;;;;;10.55;4.20;;;18.60;99.90;;;;;;1884890;76;21522;-85
2022/10/19 10:04:59;;;;;;;9.80;3.87;;;18.70;99.90;;;;;;1885678;74;21076;-85
2022/10/19 10:07:53;;;;;;;10.43;5.22;;;18.80;99.90;;;;;;1909834;74;21471;-84
2022/10/19 10:10:47;;;;;;;12.07;4.15;;;19.00;99.90;;;;;;1911734;74;21175;-85
2022/10/19 10:13:41;;;;;;;11.48;4.00;;;19.10;99.90;;;;;;1930215;74;21088;-84
2022/10/19 10:16:35;;;;;;;12.78;2.85;;;19.10;99.90;;;;;;1921041;74;21047;-84
2022/10/19 10:19:30;;;;;;;12.43;3.77;;;19.20;99.90;;;;;;1916809;74;21066;-84
2022/10/19 10:22:27;;;;;;;8.45;3.80;;;19.20;99.90;;;;;;1911212;74;21042;-85
2022/10/19 10:25:19;;;;;;;14.78;4.33;;;19.30;99.90;;;;;;1933172;74;21120;-86
2022/10/19 10:28:21;;;;;;;7.83;3.80;;;19.50;99.90;;;;;;1910643;74;21128;-86
2022/10/19 10:31:13;;;;;;;12.53;3.80;;;19.50;99.90;;;;;;1911486;74;21109;-85
2022/10/19 10:34:05;;;;;;;8.88;3.62;;;19.60;99.90;;;;;;1899967;75;21630;-86
2022/10/19 10:36:58;;;;;;;14.13;3.67;;;19.80;99.90;;;;;;1900019;75;21204;-85
2022/10/19 10:39:52;;;;;;;8.78;2.92;;;19.90;99.90;;;;;;1921933;74;21125;-85
2022/10/19 10:42:46;;;;;;;11.60;3.60;;;20.00;99.90;;;;;;1901820;74;21112;-85
2022/10/19 10:45:42;;;;;;;9.85;3.77;;;20.10;99.90;;;;;;1913163;74;21069;-85
2022/10/19 10:48:38;;;;;;;9.83;4.35;;;20.20;99.90;;;;;;1915889;74;21102;-85
2022/10/19 10:51:35;;;;;;;9.13;3.65;;;20.30;99.90;;;;;;1933114;74;21046;-85
2022/10/19 10:54:29;;;;;;;11.43;3.33;;;20.30;99.90;;;;;;1903396;74;21116;-85
2022/10/19 10:57:24;;;;;;;6.85;2.80;;;20.40;99.90;;;;;;1902310;74;21057;-85
2022/10/19 11:00:18;;;;;;;7.55;3.50;;;20.60;99.90;;;;;;1912424;74;21151;-85
2022/10/19 11:03:13;;;;;;;13.43;3.22;;;20.70;99.90;;;;;;1915713;74;21126;-85
2022/10/19 11:06:05;;;;;;;9.48;4.03;;;20.70;99.90;;;;;;1911321;74;21058;-86
2022/10/19 11:09:01;;;;;;;9.68;3.62;;;20.80;99.90;;;;;;1904364;74;21098;-85
2022/10/19 11:11:56;;;;;;;12.82;3.75;;;20.90;99.90;;;;;;1922418;74;21059;-85
2022/10/19 11:14:51;;;;;;;7.37;3.33;;;21.00;99.90;;;;;;1919929;74;21148;-86
2022/10/19 11:17:46;;;;;;;9.68;3.35;;;21.10;99.90;;;;;;1917820;74;21058;-86
2022/10/19 11:20:41;;;;;;;12.18;3.62;;;21.10;99.90;;;;;;1932673;74;21070;-85
2022/10/19 11:23:40;;;;;;;7.70;2.87;;;21.20;99.90;;;;;;1932923;74;21090;-86
2022/10/19 11:26:41;;;;;;;13.58;3.22;;;21.30;99.90;;;;;;1908387;74;21206;-85
2022/10/19 11:29:40;;;;;;;13.40;3.22;;;21.40;99.90;;;;;;1899567;75;21051;-86
2022/10/19 11:32:37;;;;;;;8.60;2.55;;;21.40;99.90;;;;;;1900174;74;21060;-86
2022/10/19 11:35:51;;;;;;;12.53;2.95;;;21.50;99.90;;;;;;1899935;75;21137;-85
2022/10/19 11:38:50;;;;;;;7.50;2.87;;;21.60;99.90;;;;;;1914843;74;21094;-85
2022/10/19 11:41:41;;;;;;;;;;;21.80;99.90;;;;;;1913449;74;21063;-85
2022/10/19 11:44:39;;;;;;;11.20;3.70;;;21.90;99.90;;;;;;1905519;74;20185;-85
2022/10/19 11:47:42;;;;;;;11.40;3.65;;;21.90;99.90;;;;;;1901231;74;21169;-85
2022/10/19 11:50:39;;;;;;;14.47;3.62;;;21.90;99.90;;;;;;1911547;74;21074;-86
2022/10/19 11:53:37;;;;;;;11.57;3.50;;;21.90;99.90;;;;;;1899966;74;21581;-85
2022/10/19 11:59:15;;;;;;;11.48;4.03;;;22.10;99.90;;;;;;1947317;72;22346;-85
2022/10/19 12:02:13;;;;;;;8.25;3.75;;;22.30;99.90;;;;;;1908290;75;21047;-85
2022/10/19 12:05:06;;;;;;;16.05;3.98;;;22.40;99.90;;;;;;1897718;75;21109;-85
2022/10/19 12:08:04;;;;;;;9.13;3.52;;;22.60;99.90;;;;;;1897785;75;21064;-86
2022/10/19 12:10:58;;;;;;;12.30;3.60;;;22.80;99.90;;;;;;1896270;75;21090;-87
2022/10/19 12:13:53;;;;;;;11.10;4.20;;;23.10;99.90;;;;;;1888617;75;21146;-86
2022/10/19 12:16:48;;;;;;;13.70;3.20;;;23.10;99.90;;;;;;1906949;75;21076;-85
2022/10/19 12:19:42;;;;;;;8.88;3.20;;;23.20;99.90;;;;;;1904973;75;21113;-85
2022/10/19 12:22:37;;;;;;;12.07;3.30;;;23.20;99.90;;;;;;1901673;75;21135;-86
2022/10/19 12:25:29;;;;;;;13.53;3.45;;;23.20;99.90;;;;;;1895957;75;21042;-87
2022/10/19 12:28:24;;;;;;;11.28;3.25;;;23.20;99.90;;;;;;1889469;75;21047;-85
2022/10/19 12:31:16;;;;;;;9.40;3.00;;;23.20;99.90;;;;;;1906458;75;21051;-86
2022/10/19 12:34:10;;;;;;;9.33;3.22;;;23.20;99.90;;;;;;1903447;75;21055;-86
2022/10/19 12:37:05;;;;;;;13.68;3.47;;;23.30;99.90;;;;;;1898683;75;21128;-86
2022/10/19 12:40:01;;;;;;;14.98;3.12;;;23.40;99.90;;;;;;1885991;75;21142;-86
2022/10/19 12:42:56;;;;;;;11.53;3.58;;;23.30;99.90;;;;;;1889463;75;21083;-86
2022/10/19 12:45:50;;;;;;;14.10;8.20;;;23.20;99.90;;;;;;1895426;75;21167;-86
2022/10/19 12:48:41;;;;;;;7.37;2.85;;;23.10;99.90;;;;;;1899557;75;21063;-85
2022/10/19 12:51:37;;;;;;;9.03;3.08;;;23.00;99.90;;;;;;1897797;75;21150;-86
2022/10/19 12:54:30;;;;;;;9.88;3.05;;;23.10;99.90;;;;;;1887320;75;21131;-85
2022/10/19 12:57:28;;;;;;;10.25;3.37;;;22.90;99.90;;;;;;1906540;75;21121;-86
2022/10/19 13:00:25;;;;;;;8.83;2.75;;;22.80;99.90;;;;;;1885012;76;21079;-86
2022/10/19 13:03:19;;;;;;;8.00;2.80;;;22.90;99.90;;;;;;1884834;75;21092;-86
2022/10/19 13:06:16;;;;;;;8.03;3.05;;;22.90;99.90;;;;;;1884810;76;21199;-86
2022/10/19 13:09:11;;;;;;;12.13;2.87;;;23.00;99.90;;;;;;1906943;75;21067;-86
2022/10/19 13:12:38;;;;;;;9.25;2.60;;;22.90;99.90;;;;;;1906429;75;21055;-85
2022/10/19 13:16:05;;;;;;;9.15;2.95;;;22.80;99.90;;;;;;1906246;75;21062;-86
2022/10/19 13:19:20;;;;;;;6.72;2.92;;;23.10;99.90;;;;;;1906474;75;21103;-86
2022/10/19 13:22:30;;;;;;;9.73;3.00;;;23.10;99.90;;;;;;1905958;75;21132;-85
2022/10/19 13:25:29;;;;;;;9.75;3.10;;;23.10;99.90;;;;;;1906310;75;21073;-85
2022/10/19 13:28:38;;;;;;;7.58;3.00;;;23.10;99.90;;;;;;1884208;76;21201;-85
2022/10/19 13:31:31;;;;;;;8.78;2.83;;;23.10;99.90;;;;;;1906380;75;21090;-85
2022/10/19 13:34:25;;;;;;;9.28;2.90;;;23.10;99.90;;;;;;1905346;75;21134;-85
2022/10/19 13:37:18;;;;;;;15.15;3.15;;;23.10;99.90;;;;;;1900916;75;21059;-85
2022/10/19 13:40:19;;;;;;;9.65;3.27;;;23.10;99.90;;;;;;1895431;75;21051;-85
2022/10/19 13:43:20;;;;;;;8.75;3.20;;;23.10;99.90;;;;;;1886635;75;21125;-86
2022/10/19 13:46:15;;;;;;;8.60;3.08;;;23.20;99.90;;;;;;1906452;75;21105;-86
2022/10/19 13:52:53;;;;;;;7.42;3.00;;;23.30;99.90;;;;;;1952504;72;22190;-86
2022/10/19 13:56:03;;;;;;;12.13;3.30;;;23.40;99.90;;;;;;1909784;73;21233;-85
2022/10/19 13:59:47;;;;;;;10.68;2.95;;;23.50;99.90;;;;;;1926535;73;21602;-86
2022/10/19 14:03:02;;;;;;;11.93;3.00;;;23.60;99.90;;;;;;1926391;73;21099;-85
2022/10/19 14:06:06;;;;;;;9.45;2.87;;;23.60;99.90;;;;;;1919794;73;21066;-86
2022/10/19 14:09:42;;;;;;;9.28;2.60;;;23.70;99.90;;;;;;1923773;73;21054;-85
2022/10/19 14:12:37;;;;;;;13.93;3.40;;;23.70;99.90;;;;;;1917711;75;21059;-85
2022/10/19 14:15:31;;;;;;;10.68;3.30;;;23.80;99.90;;;;;;1917549;75;21378;-86
2022/10/19 14:18:27;;;;;;;15.38;3.22;;;23.70;99.90;;;;;;1917629;75;21123;-86
2022/10/19 14:21:30;;;;;;;14.35;4.12;;;23.70;99.90;;;;;;1917818;75;21092;-86
2022/10/19 14:24:25;;;;;;;11.97;3.15;;;23.70;99.90;;;;;;1917652;75;21124;-86
2022/10/19 14:27:20;;;;;;;13.05;3.08;;;23.70;99.90;;;;;;1917542;75;21058;-86
2022/10/19 14:30:24;;;;;;;10.28;3.12;;;23.80;99.90;;;;;;1918045;73;21087;-86
2022/10/19 14:33:18;;;;;;;16.45;3.90;;;24.00;99.90;;;;;;1924497;73;21052;-86
2022/10/19 14:36:17;;;;;;;11.70;3.45;;;24.10;99.90;;;;;;1917550;75;21038;-87
2022/10/19 14:39:08;;;;;;;12.75;3.60;;;24.10;99.90;;;;;;1917770;75;21050;-86
2022/10/19 14:42:05;;;;;;;12.30;3.30;;;24.00;99.90;;;;;;1917778;75;21091;-86
2022/10/19 14:45:00;;;;;;;11.25;3.20;;;23.90;99.90;;;;;;1917477;75;21613;-86
2022/10/19 14:48:00;;;;;;;10.15;3.30;;;23.70;99.90;;;;;;1917808;75;21102;-86
2022/10/19 14:50:54;;;;;;;14.50;3.15;;;23.60;99.90;;;;;;1943202;73;21573;-86
2022/10/19 14:53:49;;;;;;;9.18;2.90;;;23.60;99.90;;;;;;1940755;73;21054;-86
2022/10/19 14:56:44;;;;;;;13.95;3.30;;;23.60;99.90;;;;;;1926910;74;21142;-86
2022/10/19 14:59:38;;;;;;;11.83;3.55;;;23.40;99.90;;;;;;1927526;74;21083;-86
2022/10/19 15:02:34;;;;;;;8.48;3.22;;;23.30;99.90;;;;;;1928896;74;21050;-86
2022/10/19 15:05:30;;;;;;;7.30;3.00;;;23.50;99.90;;;;;;1872599;76;21058;-87
2022/10/19 15:08:33;;;;;;;9.35;3.58;;;23.50;99.90;;;;;;1951445;73;21172;-86
2022/10/19 15:11:30;;;;;;;12.15;3.37;;;23.50;99.90;;;;;;1917589;75;21153;-86
2022/10/19 15:14:25;;;;;;;9.73;3.10;;;23.40;99.90;;;;;;1917160;75;21059;-86
2022/10/19 15:17:26;;;;;;;10.60;3.45;;;23.30;99.90;;;;;;1916843;75;21079;-86
2022/10/19 15:20:30;;;;;;;15.35;3.33;;;23.20;99.90;;;;;;1924412;73;21124;-86
2022/10/19 15:23:37;;;;;;;10.08;3.92;;;23.20;99.90;;;;;;1928298;73;21107;-86
2022/10/19 15:26:31;;;;;;;9.93;3.77;;;23.20;99.90;;;;;;1928523;73;21126;-86
2022/10/19 15:29:25;;;;;;;9.65;3.40;;;23.20;99.90;;;;;;1929838;73;21140;-86
2022/10/19 15:32:20;;;;;;;7.15;2.92;;;23.40;99.90;;;;;;1917012;75;21102;-86
2022/10/19 15:35:14;;;;;;;8.93;3.77;;;23.80;99.90;;;;;;1916896;75;21176;-85
2022/10/19 15:38:09;;;;;;;13.43;3.72;;;23.50;99.90;;;;;;1916853;75;21132;-86
2022/10/19 15:41:05;;;;;;;8.80;3.45;;;23.30;99.90;;;;;;1919218;73;21196;-85
2022/10/19 15:44:07;;;;;;;7.08;3.42;;;23.20;99.90;;;;;;1930022;73;21091;-86
2022/10/19 15:47:25;;;;;;;7.80;3.20;;;23.10;99.90;;;;;;1934750;73;21110;-85
2022/10/19 15:50:29;;;;;;;9.50;3.22;;;22.90;99.90;;;;;;1935026;73;21051;-86
2022/10/19 15:53:21;;;;;;;8.15;3.08;;;22.60;99.90;;;;;;1932821;73;21078;-86
2022/10/19 15:56:14;;;;;;;10.30;3.40;;;22.60;99.90;;;;;;1924979;74;21051;-86
2022/10/19 15:59:09;;;;;;;6.97;3.10;;;22.50;99.90;;;;;;1913021;74;21071;-86
2022/10/19 16:02:00;;;;;;;9.83;3.37;;;22.40;99.90;;;;;;1917751;74;21133;-86
2022/10/19 16:04:52;;;;;;;7.65;3.08;;;22.20;99.90;;;;;;1914190;75;21146;-86
2022/10/19 16:07:43;;;;;;;9.63;3.83;;;22.00;99.90;;;;;;1897229;74;21146;-86
2022/10/19 16:10:34;;;;;;;11.63;3.90;;;21.90;99.90;;;;;;1921642;74;21059;-86
2022/10/19 16:13:26;;;;;;;14.15;3.98;;;21.80;99.90;;;;;;1920475;74;21037;-85
2022/10/19 16:16:21;;;;;;;10.72;4.08;;;21.80;99.90;;;;;;1895787;75;21063;-85
2022/10/19 16:19:12;;;;;;;14.30;3.85;;;21.70;99.90;;;;;;1904634;74;21172;-85
2022/10/19 16:22:04;;;;;;;13.22;4.33;;;21.60;99.90;;;;;;1925337;74;21123;-86
2022/10/19 16:24:55;;;;;;;11.85;4.03;;;21.40;99.90;;;;;;1925191;74;21054;-86
2022/10/19 16:27:47;;;;;;;13.25;3.87;;;21.40;99.90;;;;;;1926433;74;21157;-86
2022/10/19 16:30:38;;;;;;;11.18;3.65;;;21.30;99.90;;;;;;1895935;75;21179;-86
2022/10/19 16:33:32;;;;;;;10.65;3.95;;;21.20;99.90;;;;;;1891836;75;21109;-87
2022/10/19 16:36:24;;;;;;;11.65;4.37;;;21.10;99.90;;;;;;1909388;75;21175;-86
2022/10/19 16:39:15;;;;;;;7.72;3.45;;;21.10;99.90;;;;;;1917272;74;21150;-85
2022/10/19 16:42:08;;;;;;;8.68;3.30;;;20.90;99.90;;;;;;1927860;74;21083;-86
2022/10/19 16:44:59;;;;;;;6.58;3.55;;;20.90;99.90;;;;;;1895656;74;21049;-86
2022/10/19 16:47:51;;;;;;;11.63;4.37;;;20.90;99.90;;;;;;1915501;74;21091;-85
2022/10/19 16:50:43;;;;;;;13.10;3.98;;;20.80;99.90;;;;;;1893155;74;21106;-86
2022/10/19 16:53:35;;;;;;;10.65;3.98;;;20.70;99.90;;;;;;1919813;74;21160;-86
2022/10/19 16:56:28;;;;;;;11.93;3.80;;;20.60;99.90;;;;;;1902530;75;21071;-86
2022/10/19 16:59:20;;;;;;;9.63;3.72;;;20.40;99.90;;;;;;1918711;74;21051;-86
2022/10/19 17:02:13;;;;;;;10.70;3.40;;;20.30;99.90;;;;;;1918484;74;21098;-86
2022/10/19 17:05:04;;;;;;;10.65;3.47;;;20.20;99.90;;;;;;1916985;74;21051;-86
2022/10/19 17:07:55;;;;;;;10.55;3.95;;;20.10;99.90;;;;;;1915925;74;21050;-85
2022/10/19 17:10:47;;;;;;;11.05;3.58;;;20.10;99.90;;;;;;1919443;74;21056;-87
2022/10/19 17:13:39;;;;;;;8.60;3.65;;;20.00;99.90;;;;;;1918614;74;21044;-87
2022/10/19 17:16:33;;;;;;;11.68;3.70;;;19.90;99.90;;;;;;1902218;75;21125;-87
2022/10/19 17:19:24;;;;;;;14.83;4.37;;;19.90;99.90;;;;;;1914681;74;21048;-86
2022/10/19 17:22:16;;;;;;;10.80;3.77;;;19.80;99.90;;;;;;1902205;74;21119;-85
2022/10/19 17:25:09;;;;;;;11.03;3.87;;;19.70;99.90;;;;;;1907074;74;21122;-86
2022/10/19 17:28:00;;;;;;;11.35;4.22;;;19.60;99.90;;;;;;1910647;74;21140;-86
2022/10/19 17:30:52;;;;;;;10.95;4.03;;;19.60;99.90;;;;;;1916824;74;21144;-85
2022/10/19 17:33:44;;;;;;;14.63;4.30;;;19.50;99.90;;;;;;1902467;75;21103;-85
2022/10/19 17:36:43;;;;;;;14.45;4.83;;;19.30;99.90;;;;;;1902429;74;21204;-86
2022/10/19 17:39:34;;;;;;;14.98;4.37;;;19.30;99.90;;;;;;1918630;74;21556;-86
2022/10/19 17:42:26;;;;;;;10.80;4.50;;;19.30;99.90;;;;;;1902346;75;21607;-85
2022/10/19 17:45:18;;;;;;;14.75;4.08;;;19.30;99.90;;;;;;1914424;74;21051;-86
2022/10/19 17:48:09;;;;;;;11.78;4.22;;;19.30;99.90;;;;;;1902402;74;21632;-86
2022/10/19 17:51:03;;;;;;;9.38;3.65;;;19.30;99.90;;;;;;1922312;74;21054;-85
2022/10/19 17:53:57;;;;;;;10.93;3.75;;;19.30;99.90;;;;;;1912197;74;21153;-86